sensor_id;sensor_type;location;lat;lon;timestamp;pressure;altitude;pressure_sealevel;temperature;humidity
46782;BME280;32541;46.298;11.506;2022-12-07T00:01:48;89100.63;;;-3.29;95.19
46782;BME280;32541;46.298;11.506;2022-12-07T00:04:17;89107.31;;;-3.36;95.91
46782;BME280;32541;46.298;11.506;2022-12-07T00:07:10;89110.38;;;-3.26;95.17
46782;BME280;32541;46.298;11.506;2022-12-07T00:09:46;89107.47;;;-3.28;94.82
46782;BME280;32541;46.298;11.506;2022-12-07T00:12:16;89096.50;;;-3.30;94.66
46782;BME280;32541;46.298;11.506;2022-12-07T00:14:50;89105.72;;;-3.26;94.22
46782;BME280;32541;46.298;11.506;2022-12-07T00:17:29;89109.41;;;-3.29;94.57
46782;BME280;32541;46.298;11.506;2022-12-07T00:20:02;89098.03;;;-3.16;93.59
46782;BME280;32541;46.298;11.506;2022-12-07T00:22:32;89102.59;;;-3.30;94.30
46782;BME280;32541;46.298;11.506;2022-12-07T00:25:10;89108.69;;;-3.29;94.67
46782;BME280;32541;46.298;11.506;2022-12-07T00:27:35;89104.09;;;-3.34;95.20
46782;BME280;32541;46.298;11.506;2022-12-07T00:30:07;89100.69;;;-3.35;94.60
46782;BME280;32541;46.298;11.506;2022-12-07T00:32:38;89109.38;;;-3.48;95.14
46782;BME280;32541;46.298;11.506;2022-12-07T00:35:17;89108.84;;;-3.46;94.73
46782;BME280;32541;46.298;11.506;2022-12-07T00:37:48;89099.34;;;-3.47;95.56
46782;BME280;32541;46.298;11.506;2022-12-07T00:40:36;89097.94;;;-3.54;96.30
46782;BME280;32541;46.298;11.506;2022-12-07T00:43:05;89086.97;;;-3.56;95.29
46782;BME280;32541;46.298;11.506;2022-12-07T00:45:30;89096.22;;;-3.51;95.79
46782;BME280;32541;46.298;11.506;2022-12-07T00:48:06;89091.56;;;-3.51;95.62
46782;BME280;32541;46.298;11.506;2022-12-07T00:50:32;89086.97;;;-3.56;95.49
46782;BME280;32541;46.298;11.506;2022-12-07T00:53:11;89089.91;;;-3.54;95.67
46782;BME280;32541;46.298;11.506;2022-12-07T00:55:37;89087.75;;;-3.61;96.03
46782;BME280;32541;46.298;11.506;2022-12-07T00:58:06;89088.44;;;-3.55;95.54
46782;BME280;32541;46.298;11.506;2022-12-07T01:00:32;89087.41;;;-3.52;95.37
46782;BME280;32541;46.298;11.506;2022-12-07T01:02:58;89086.63;;;-3.47;94.38
46782;BME280;32541;46.298;11.506;2022-12-07T01:05:39;89085.19;;;-3.48;94.31
46782;BME280;32541;46.298;11.506;2022-12-07T01:08:10;89094.53;;;-3.54;94.61
46782;BME280;32541;46.298;11.506;2022-12-07T01:10:38;89089.09;;;-3.49;94.63
46782;BME280;32541;46.298;11.506;2022-12-07T01:13:09;89093.25;;;-3.48;94.65
46782;BME280;32541;46.298;11.506;2022-12-07T01:16:02;89088.31;;;-3.44;94.63
46782;BME280;32541;46.298;11.506;2022-12-07T01:18:49;89092.78;;;-3.52;94.61
46782;BME280;32541;46.298;11.506;2022-12-07T01:21:42;89081.59;;;-3.56;94.83
46782;BME280;32541;46.298;11.506;2022-12-07T01:24:37;89080.03;;;-3.46;94.34
46782;BME280;32541;46.298;11.506;2022-12-07T01:27:26;89083.50;;;-3.51;94.75
46782;BME280;32541;46.298;11.506;2022-12-07T01:29:51;89075.38;;;-3.45;93.87
46782;BME280;32541;46.298;11.506;2022-12-07T01:32:25;89071.44;;;-3.44;94.31
46782;BME280;32541;46.298;11.506;2022-12-07T01:35:28;89065.94;;;-3.52;94.71
46782;BME280;32541;46.298;11.506;2022-12-07T01:37:54;89073.31;;;-3.58;95.13
46782;BME280;32541;46.298;11.506;2022-12-07T01:40:25;89072.31;;;-3.55;95.42
46782;BME280;32541;46.298;11.506;2022-12-07T01:43:02;89075.53;;;-3.38;94.44
46782;BME280;32541;46.298;11.506;2022-12-07T01:45:38;89079.75;;;-3.42;94.99
46782;BME280;32541;46.298;11.506;2022-12-07T01:48:11;89075.44;;;-3.51;96.00
46782;BME280;32541;46.298;11.506;2022-12-07T01:50:49;89071.97;;;-3.46;95.60
46782;BME280;32541;46.298;11.506;2022-12-07T01:53:26;89072.69;;;-3.45;96.05
46782;BME280;32541;46.298;11.506;2022-12-07T01:56:25;89069.06;;;-3.48;95.46
46782;BME280;32541;46.298;11.506;2022-12-07T01:58:58;89066.94;;;-3.55;95.60
46782;BME280;32541;46.298;11.506;2022-12-07T02:01:42;89063.72;;;-3.53;95.66
46782;BME280;32541;46.298;11.506;2022-12-07T02:04:36;89049.34;;;-3.56;95.90
46782;BME280;32541;46.298;11.506;2022-12-07T02:07:05;89052.97;;;-3.53;95.21
46782;BME280;32541;46.298;11.506;2022-12-07T02:09:30;89040.28;;;-3.53;94.67
46782;BME280;32541;46.298;11.506;2022-12-07T02:12:04;89045.16;;;-3.51;95.24
46782;BME280;32541;46.298;11.506;2022-12-07T02:14:36;89041.75;;;-3.52;95.28
46782;BME280;32541;46.298;11.506;2022-12-07T02:17:15;89037.84;;;-3.51;95.08
46782;BME280;32541;46.298;11.506;2022-12-07T02:20:32;89037.03;;;-3.46;95.18
46782;BME280;32541;46.298;11.506;2022-12-07T02:31:48;89026.41;;;-3.57;96.29
46782;BME280;32541;46.298;11.506;2022-12-07T02:37:17;89022.81;;;-3.41;95.28
46782;BME280;32541;46.298;11.506;2022-12-07T02:39:48;89031.00;;;-3.52;95.36
46782;BME280;32541;46.298;11.506;2022-12-07T02:42:20;89031.34;;;-3.61;95.43
46782;BME280;32541;46.298;11.506;2022-12-07T02:44:49;89034.81;;;-3.66;96.12
46782;BME280;32541;46.298;11.506;2022-12-07T02:47:17;89023.94;;;-3.55;95.67
46782;BME280;32541;46.298;11.506;2022-12-07T02:49:44;89021.25;;;-3.55;95.71
46782;BME280;32541;46.298;11.506;2022-12-07T02:52:09;89024.94;;;-3.58;95.59
46782;BME280;32541;46.298;11.506;2022-12-07T02:54:35;89017.22;;;-3.67;95.56
46782;BME280;32541;46.298;11.506;2022-12-07T03:00:06;89015.75;;;-3.68;95.50
46782;BME280;32541;46.298;11.506;2022-12-07T03:03:03;89012.66;;;-3.72;94.97
46782;BME280;32541;46.298;11.506;2022-12-07T03:05:48;89016.78;;;-3.71;94.81
46782;BME280;32541;46.298;11.506;2022-12-07T03:11:14;89015.44;;;-3.83;95.63
46782;BME280;32541;46.298;11.506;2022-12-07T03:13:51;89021.81;;;-3.86;95.13
46782;BME280;32541;46.298;11.506;2022-12-07T03:16:28;89016.94;;;-3.87;95.63
46782;BME280;32541;46.298;11.506;2022-12-07T03:19:17;89023.72;;;-3.81;95.42
46782;BME280;32541;46.298;11.506;2022-12-07T03:21:51;89015.00;;;-3.87;96.08
46782;BME280;32541;46.298;11.506;2022-12-07T03:24:24;89015.72;;;-3.86;95.37
46782;BME280;32541;46.298;11.506;2022-12-07T03:26:56;89003.69;;;-3.80;95.12
46782;BME280;32541;46.298;11.506;2022-12-07T03:29:42;89010.06;;;-3.83;94.96
46782;BME280;32541;46.298;11.506;2022-12-07T03:34:49;89008.75;;;-3.95;95.51
46782;BME280;32541;46.298;11.506;2022-12-07T03:37:31;89005.47;;;-3.88;95.53
46782;BME280;32541;46.298;11.506;2022-12-07T03:42:35;89003.47;;;-3.82;95.48
46782;BME280;32541;46.298;11.506;2022-12-07T03:45:02;88995.41;;;-3.82;95.73
46782;BME280;32541;46.298;11.506;2022-12-07T03:47:33;89002.97;;;-3.80;95.93
46782;BME280;32541;46.298;11.506;2022-12-07T03:50:07;89000.63;;;-3.89;95.95
46782;BME280;32541;46.298;11.506;2022-12-07T03:53:11;88992.94;;;-3.80;94.89
46782;BME280;32541;46.298;11.506;2022-12-07T03:55:42;89005.94;;;-3.84;95.60
46782;BME280;32541;46.298;11.506;2022-12-07T03:58:12;88991.78;;;-3.84;95.55
46782;BME280;32541;46.298;11.506;2022-12-07T04:00:42;88996.69;;;-3.88;95.63
46782;BME280;32541;46.298;11.506;2022-12-07T04:03:07;88989.81;;;-3.84;95.15
46782;BME280;32541;46.298;11.506;2022-12-07T04:05:33;88986.91;;;-3.86;95.53
46782;BME280;32541;46.298;11.506;2022-12-07T04:07:58;88988.03;;;-3.76;95.12
46782;BME280;32541;46.298;11.506;2022-12-07T04:10:24;88988.16;;;-3.87;94.84
46782;BME280;32541;46.298;11.506;2022-12-07T04:12:49;88992.72;;;-3.82;95.18
46782;BME280;32541;46.298;11.506;2022-12-07T04:15:15;88999.38;;;-3.64;95.25
46782;BME280;32541;46.298;11.506;2022-12-07T04:17:40;88995.75;;;-3.67;95.24
46782;BME280;32541;46.298;11.506;2022-12-07T04:20:06;88996.34;;;-3.79;95.77
46782;BME280;32541;46.298;11.506;2022-12-07T04:22:32;88995.94;;;-3.83;95.35
46782;BME280;32541;46.298;11.506;2022-12-07T04:24:58;88991.63;;;-3.92;95.62
46782;BME280;32541;46.298;11.506;2022-12-07T04:27:23;88982.09;;;-3.93;96.01
46782;BME280;32541;46.298;11.506;2022-12-07T04:29:48;88985.25;;;-3.89;95.70
46782;BME280;32541;46.298;11.506;2022-12-07T04:32:14;88978.50;;;-3.77;94.95
46782;BME280;32541;46.298;11.506;2022-12-07T04:34:39;88963.19;;;-3.82;95.02
46782;BME280;32541;46.298;11.506;2022-12-07T04:37:05;88965.66;;;-3.84;95.13
46782;BME280;32541;46.298;11.506;2022-12-07T04:39:31;88963.53;;;-3.91;96.18
46782;BME280;32541;46.298;11.506;2022-12-07T04:41:57;88964.25;;;-3.90;95.62
46782;BME280;32541;46.298;11.506;2022-12-07T04:44:24;88962.38;;;-3.96;95.65
46782;BME280;32541;46.298;11.506;2022-12-07T04:46:50;88957.41;;;-3.92;96.36
46782;BME280;32541;46.298;11.506;2022-12-07T04:49:16;88961.28;;;-3.87;95.47
46782;BME280;32541;46.298;11.506;2022-12-07T04:51:42;88961.84;;;-3.94;96.21
46782;BME280;32541;46.298;11.506;2022-12-07T04:54:08;88963.75;;;-3.89;95.46
46782;BME280;32541;46.298;11.506;2022-12-07T04:56:34;88962.63;;;-3.99;96.19
46782;BME280;32541;46.298;11.506;2022-12-07T04:59:00;88959.94;;;-3.99;96.80
46782;BME280;32541;46.298;11.506;2022-12-07T05:01:26;88971.16;;;-3.95;97.57
46782;BME280;32541;46.298;11.506;2022-12-07T05:03:51;88965.03;;;-3.96;96.54
46782;BME280;32541;46.298;11.506;2022-12-07T05:06:17;88969.75;;;-4.02;97.40
46782;BME280;32541;46.298;11.506;2022-12-07T05:08:42;88963.44;;;-4.04;96.60
46782;BME280;32541;46.298;11.506;2022-12-07T05:11:09;88962.09;;;-3.92;96.25
46782;BME280;32541;46.298;11.506;2022-12-07T05:13:35;88962.19;;;-4.03;96.43
46782;BME280;32541;46.298;11.506;2022-12-07T05:16:01;88961.50;;;-4.09;96.53
46782;BME280;32541;46.298;11.506;2022-12-07T05:18:27;88959.00;;;-4.02;97.08
46782;BME280;32541;46.298;11.506;2022-12-07T05:20:53;88957.31;;;-4.05;96.98
46782;BME280;32541;46.298;11.506;2022-12-07T05:23:19;88953.25;;;-4.11;97.35
46782;BME280;32541;46.298;11.506;2022-12-07T05:25:44;88959.06;;;-4.07;96.99
46782;BME280;32541;46.298;11.506;2022-12-07T05:28:10;88963.50;;;-4.15;97.01
46782;BME280;32541;46.298;11.506;2022-12-07T05:30:35;88959.06;;;-4.07;97.10
46782;BME280;32541;46.298;11.506;2022-12-07T05:33:01;88965.13;;;-4.07;97.54
46782;BME280;32541;46.298;11.506;2022-12-07T05:35:28;88966.44;;;-4.13;97.81
46782;BME280;32541;46.298;11.506;2022-12-07T05:37:55;88962.56;;;-4.18;97.85
46782;BME280;32541;46.298;11.506;2022-12-07T05:40:23;88961.56;;;-4.15;96.90
46782;BME280;32541;46.298;11.506;2022-12-07T05:42:48;88958.66;;;-4.17;97.06
46782;BME280;32541;46.298;11.506;2022-12-07T05:45:14;88968.78;;;-4.04;98.35
46782;BME280;32541;46.298;11.506;2022-12-07T05:47:39;88961.28;;;-3.87;99.06
46782;BME280;32541;46.298;11.506;2022-12-07T05:50:05;88960.41;;;-3.95;97.80
46782;BME280;32541;46.298;11.506;2022-12-07T05:52:31;88957.06;;;-4.01;97.17
46782;BME280;32541;46.298;11.506;2022-12-07T05:54:57;88952.69;;;-4.04;97.44
46782;BME280;32541;46.298;11.506;2022-12-07T05:57:22;88957.75;;;-4.01;96.27
46782;BME280;32541;46.298;11.506;2022-12-07T05:59:48;88959.28;;;-4.05;97.12
46782;BME280;32541;46.298;11.506;2022-12-07T06:02:14;88956.53;;;-4.00;96.41
46782;BME280;32541;46.298;11.506;2022-12-07T06:04:43;88960.97;;;-4.02;95.96
46782;BME280;32541;46.298;11.506;2022-12-07T06:07:10;88965.47;;;-3.92;96.38
46782;BME280;32541;46.298;11.506;2022-12-07T06:09:36;88963.03;;;-3.89;96.11
46782;BME280;32541;46.298;11.506;2022-12-07T06:12:02;88965.53;;;-3.97;96.28
46782;BME280;32541;46.298;11.506;2022-12-07T06:14:46;88978.06;;;-4.05;97.47
46782;BME280;32541;46.298;11.506;2022-12-07T06:17:12;88969.75;;;-4.02;96.66
46782;BME280;32541;46.298;11.506;2022-12-07T06:19:38;88976.19;;;-4.10;97.48
46782;BME280;32541;46.298;11.506;2022-12-07T06:22:04;88975.88;;;-4.07;99.06
46782;BME280;32541;46.298;11.506;2022-12-07T06:24:31;88974.38;;;-4.02;99.10
46782;BME280;32541;46.298;11.506;2022-12-07T06:26:57;88976.94;;;-3.91;98.13
46782;BME280;32541;46.298;11.506;2022-12-07T06:29:22;88964.03;;;-3.92;98.07
46782;BME280;32541;46.298;11.506;2022-12-07T06:31:48;88966.47;;;-3.95;98.08
46782;BME280;32541;46.298;11.506;2022-12-07T06:34:16;88970.22;;;-3.79;98.50
46782;BME280;32541;46.298;11.506;2022-12-07T06:36:42;88970.34;;;-3.66;97.46
46782;BME280;32541;46.298;11.506;2022-12-07T06:39:08;88974.47;;;-3.65;96.52
46782;BME280;32541;46.298;11.506;2022-12-07T06:41:35;88978.16;;;-3.68;96.54
46782;BME280;32541;46.298;11.506;2022-12-07T06:44:01;88979.56;;;-3.85;97.08
46782;BME280;32541;46.298;11.506;2022-12-07T06:46:26;88980.47;;;-3.77;97.22
46782;BME280;32541;46.298;11.506;2022-12-07T06:48:52;88981.50;;;-3.80;97.59
46782;BME280;32541;46.298;11.506;2022-12-07T06:51:17;88981.31;;;-3.88;98.17
46782;BME280;32541;46.298;11.506;2022-12-07T06:53:42;88978.41;;;-3.90;98.34
46782;BME280;32541;46.298;11.506;2022-12-07T06:56:11;88984.28;;;-3.92;98.97
46782;BME280;32541;46.298;11.506;2022-12-07T06:58:36;88986.97;;;-3.92;100.00
46782;BME280;32541;46.298;11.506;2022-12-07T07:01:02;88984.72;;;-3.87;99.36
46782;BME280;32541;46.298;11.506;2022-12-07T07:03:28;88981.53;;;-3.86;99.48
46782;BME280;32541;46.298;11.506;2022-12-07T07:05:53;88976.59;;;-3.82;99.57
46782;BME280;32541;46.298;11.506;2022-12-07T07:08:19;88979.75;;;-3.78;99.44
46782;BME280;32541;46.298;11.506;2022-12-07T07:10:44;88980.69;;;-3.75;100.00
46782;BME280;32541;46.298;11.506;2022-12-07T07:13:10;88980.63;;;-3.70;100.00
46782;BME280;32541;46.298;11.506;2022-12-07T07:15:38;88979.91;;;-3.70;99.88
46782;BME280;32541;46.298;11.506;2022-12-07T07:18:04;88976.13;;;-3.62;99.31
46782;BME280;32541;46.298;11.506;2022-12-07T07:20:29;88984.44;;;-3.60;98.88
46782;BME280;32541;46.298;11.506;2022-12-07T07:22:55;88970.47;;;-3.58;98.89
46782;BME280;32541;46.298;11.506;2022-12-07T07:25:21;88973.63;;;-3.54;98.65
46782;BME280;32541;46.298;11.506;2022-12-07T07:27:46;88972.09;;;-3.50;99.14
46782;BME280;32541;46.298;11.506;2022-12-07T07:30:12;88975.22;;;-3.46;98.98
46782;BME280;32541;46.298;11.506;2022-12-07T07:32:37;88973.63;;;-3.36;98.84
46782;BME280;32541;46.298;11.506;2022-12-07T07:35:03;88980.41;;;-3.10;97.68
46782;BME280;32541;46.298;11.506;2022-12-07T07:37:29;88975.31;;;-3.14;96.80
46782;BME280;32541;46.298;11.506;2022-12-07T07:39:55;88972.34;;;-3.10;97.54
46782;BME280;32541;46.298;11.506;2022-12-07T07:42:20;88989.84;;;-3.04;98.11
46782;BME280;32541;46.298;11.506;2022-12-07T07:44:45;88983.09;;;-3.10;97.82
46782;BME280;32541;46.298;11.506;2022-12-07T07:47:11;88981.41;;;-3.13;97.60
46782;BME280;32541;46.298;11.506;2022-12-07T07:49:36;88976.91;;;-3.05;97.82
46782;BME280;32541;46.298;11.506;2022-12-07T07:52:02;88990.63;;;-2.90;97.42
46782;BME280;32541;46.298;11.506;2022-12-07T07:54:28;88987.50;;;-2.75;96.65
46782;BME280;32541;46.298;11.506;2022-12-07T07:56:53;88984.03;;;-2.39;95.56
46782;BME280;32541;46.298;11.506;2022-12-07T07:59:19;88976.66;;;-0.54;91.27
46782;BME280;32541;46.298;11.506;2022-12-07T08:01:44;88991.97;;;0.05;88.80
46782;BME280;32541;46.298;11.506;2022-12-07T08:04:10;88990.94;;;0.36;84.67
46782;BME280;32541;46.298;11.506;2022-12-07T08:06:36;88988.97;;;0.93;82.49
46782;BME280;32541;46.298;11.506;2022-12-07T08:09:02;88983.19;;;1.91;79.49
46782;BME280;32541;46.298;11.506;2022-12-07T08:11:27;88985.16;;;3.12;73.78
46782;BME280;32541;46.298;11.506;2022-12-07T08:13:53;88968.84;;;4.31;67.69
46782;BME280;32541;46.298;11.506;2022-12-07T08:16:18;88978.38;;;5.48;63.65
46782;BME280;32541;46.298;11.506;2022-12-07T08:18:44;88971.06;;;6.39;59.95
46782;BME280;32541;46.298;11.506;2022-12-07T08:21:12;88963.97;;;6.99;57.09
46782;BME280;32541;46.298;11.506;2022-12-07T08:23:38;88973.59;;;6.27;56.93
46782;BME280;32541;46.298;11.506;2022-12-07T08:26:07;88972.91;;;5.48;58.89
46782;BME280;32541;46.298;11.506;2022-12-07T08:28:33;88972.81;;;5.56;58.68
46782;BME280;32541;46.298;11.506;2022-12-07T08:31:00;88979.25;;;6.39;56.77
46782;BME280;32541;46.298;11.506;2022-12-07T08:33:26;88978.56;;;7.20;53.74
46782;BME280;32541;46.298;11.506;2022-12-07T08:35:52;88980.06;;;7.60;52.24
46782;BME280;32541;46.298;11.506;2022-12-07T08:38:17;88961.03;;;7.81;51.31
46782;BME280;32541;46.298;11.506;2022-12-07T08:40:43;88964.47;;;8.20;50.19
46782;BME280;32541;46.298;11.506;2022-12-07T08:43:08;88966.94;;;7.97;50.31
46782;BME280;32541;46.298;11.506;2022-12-07T08:45:34;88971.81;;;7.41;51.46
46782;BME280;32541;46.298;11.506;2022-12-07T08:48:10;88968.22;;;7.38;50.44
46782;BME280;32541;46.298;11.506;2022-12-07T08:50:37;88973.38;;;7.24;51.25
46782;BME280;32541;46.298;11.506;2022-12-07T08:53:03;88971.28;;;7.42;51.01
46782;BME280;32541;46.298;11.506;2022-12-07T08:55:31;88971.69;;;7.58;52.11
46782;BME280;32541;46.298;11.506;2022-12-07T08:57:58;88977.75;;;7.47;50.96
46782;BME280;32541;46.298;11.506;2022-12-07T09:00:25;88976.97;;;7.17;51.29
46782;BME280;32541;46.298;11.506;2022-12-07T09:02:51;88983.41;;;7.03;51.02
46782;BME280;32541;46.298;11.506;2022-12-07T09:05:17;88986.50;;;6.17;50.92
46782;BME280;32541;46.298;11.506;2022-12-07T09:07:45;88986.81;;;4.84;56.87
46782;BME280;32541;46.298;11.506;2022-12-07T09:10:11;88990.66;;;4.48;59.90
46782;BME280;32541;46.298;11.506;2022-12-07T09:12:37;88981.91;;;4.99;59.00
46782;BME280;32541;46.298;11.506;2022-12-07T09:15:03;88992.97;;;5.60;57.88
46782;BME280;32541;46.298;11.506;2022-12-07T09:17:32;88980.97;;;5.73;55.62
46782;BME280;32541;46.298;11.506;2022-12-07T09:19:58;88988.13;;;5.86;55.58
46782;BME280;32541;46.298;11.506;2022-12-07T09:22:23;88991.06;;;6.14;56.38
46782;BME280;32541;46.298;11.506;2022-12-07T09:24:49;88977.44;;;6.41;56.17
46782;BME280;32541;46.298;11.506;2022-12-07T09:27:14;88978.56;;;6.75;54.50
46782;BME280;32541;46.298;11.506;2022-12-07T09:29:41;88985.56;;;7.04;55.24
46782;BME280;32541;46.298;11.506;2022-12-07T09:32:07;88991.56;;;7.39;54.51
46782;BME280;32541;46.298;11.506;2022-12-07T09:34:32;88985.25;;;7.65;52.79
46782;BME280;32541;46.298;11.506;2022-12-07T09:37:00;88976.28;;;7.26;52.56
46782;BME280;32541;46.298;11.506;2022-12-07T09:39:26;88978.97;;;6.08;56.26
46782;BME280;32541;46.298;11.506;2022-12-07T09:41:52;88982.28;;;4.79;61.94
46782;BME280;32541;46.298;11.506;2022-12-07T09:44:23;88982.63;;;4.33;62.29
46782;BME280;32541;46.298;11.506;2022-12-07T09:46:49;88983.31;;;3.29;66.28
46782;BME280;32541;46.298;11.506;2022-12-07T09:49:23;88980.75;;;3.31;67.99
46782;BME280;32541;46.298;11.506;2022-12-07T09:54:35;88994.06;;;2.97;69.26
46782;BME280;32541;46.298;11.506;2022-12-07T09:57:04;88991.56;;;2.61;68.21
46782;BME280;32541;46.298;11.506;2022-12-07T09:59:29;88992.47;;;2.64;68.90
46782;BME280;32541;46.298;11.506;2022-12-07T10:01:55;88982.72;;;2.46;68.88
46782;BME280;32541;46.298;11.506;2022-12-07T10:04:26;88978.75;;;2.32;67.99
46782;BME280;32541;46.298;11.506;2022-12-07T10:06:54;88976.38;;;2.36;67.27
46782;BME280;32541;46.298;11.506;2022-12-07T10:09:21;88973.53;;;3.26;64.59
46782;BME280;32541;46.298;11.506;2022-12-07T10:12:07;88963.25;;;3.97;63.71
46782;BME280;32541;46.298;11.506;2022-12-07T10:14:37;88956.47;;;4.63;63.21
46782;BME280;32541;46.298;11.506;2022-12-07T10:19:51;88950.56;;;5.77;62.59
46782;BME280;32541;46.298;11.506;2022-12-07T10:22:17;88947.28;;;6.22;58.86
46782;BME280;32541;46.298;11.506;2022-12-07T10:24:46;88944.72;;;6.60;57.00
46782;BME280;32541;46.298;11.506;2022-12-07T10:27:31;88949.16;;;7.02;55.34
46782;BME280;32541;46.298;11.506;2022-12-07T10:29:58;88950.19;;;7.06;54.25
46782;BME280;32541;46.298;11.506;2022-12-07T10:32:30;88944.03;;;7.15;54.06
46782;BME280;32541;46.298;11.506;2022-12-07T10:35:35;88941.09;;;7.04;53.61
46782;BME280;32541;46.298;11.506;2022-12-07T10:38:16;88943.06;;;6.38;57.76
46782;BME280;32541;46.298;11.506;2022-12-07T10:40:41;88936.91;;;5.33;60.64
46782;BME280;32541;46.298;11.506;2022-12-07T10:48:45;88940.69;;;3.79;64.16
46782;BME280;32541;46.298;11.506;2022-12-07T10:51:26;88929.59;;;3.85;64.17
46782;BME280;32541;46.298;11.506;2022-12-07T11:01:45;88919.63;;;3.48;65.12
46782;BME280;32541;46.298;11.506;2022-12-07T11:04:37;88921.50;;;3.38;66.83
46782;BME280;32541;46.298;11.506;2022-12-07T11:07:12;88916.53;;;3.91;64.79
46782;BME280;32541;46.298;11.506;2022-12-07T11:15:26;88902.00;;;6.19;56.75
46782;BME280;32541;46.298;11.506;2022-12-07T11:18:18;88898.66;;;6.47;59.10
46782;BME280;32541;46.298;11.506;2022-12-07T11:26:17;88890.47;;;6.47;55.84
46782;BME280;32541;46.298;11.506;2022-12-07T11:39:07;88890.59;;;3.90;63.65
46782;BME280;32541;46.298;11.506;2022-12-07T11:41:37;88878.56;;;3.36;63.79
46782;BME280;32541;46.298;11.506;2022-12-07T11:44:14;88882.44;;;3.90;62.75
46782;BME280;32541;46.298;11.506;2022-12-07T11:46:50;88871.84;;;4.26;62.44
46782;BME280;32541;46.298;11.506;2022-12-07T11:49:27;88880.72;;;4.27;62.24
46782;BME280;32541;46.298;11.506;2022-12-07T11:51:58;88874.16;;;4.89;59.31
46782;BME280;32541;46.298;11.506;2022-12-07T11:54:32;88871.63;;;5.52;57.36
46782;BME280;32541;46.298;11.506;2022-12-07T11:57:04;88871.31;;;5.75;54.71
46782;BME280;32541;46.298;11.506;2022-12-07T11:59:40;88869.28;;;4.45;53.33
46782;BME280;32541;46.298;11.506;2022-12-07T12:02:16;88860.28;;;4.94;54.34
46782;BME280;32541;46.298;11.506;2022-12-07T12:04:52;88864.03;;;4.65;54.16
46782;BME280;32541;46.298;11.506;2022-12-07T12:07:23;88856.84;;;5.28;53.47
46782;BME280;32541;46.298;11.506;2022-12-07T12:10:38;88853.00;;;5.85;54.48
46782;BME280;32541;46.298;11.506;2022-12-07T12:20:54;88851.88;;;6.70;55.08
46782;BME280;32541;46.298;11.506;2022-12-07T12:26:28;88845.84;;;6.81;49.76
46782;BME280;32541;46.298;11.506;2022-12-07T12:28:58;88841.69;;;6.70;51.85
46782;BME280;32541;46.298;11.506;2022-12-07T12:31:33;88838.84;;;5.96;54.71
46782;BME280;32541;46.298;11.506;2022-12-07T12:34:10;88847.53;;;5.31;59.46
46782;BME280;32541;46.298;11.506;2022-12-07T12:36:47;88843.06;;;5.53;59.13
46782;BME280;32541;46.298;11.506;2022-12-07T12:39:17;88833.91;;;5.58;56.40
46782;BME280;32541;46.298;11.506;2022-12-07T12:46:54;88848.41;;;5.34;59.73
46782;BME280;32541;46.298;11.506;2022-12-07T12:51:51;88841.59;;;5.25;58.98
46782;BME280;32541;46.298;11.506;2022-12-07T12:57:21;88835.81;;;5.21;60.31
46782;BME280;32541;46.298;11.506;2022-12-07T13:02:35;88829.41;;;5.26;59.12
46782;BME280;32541;46.298;11.506;2022-12-07T13:15:48;88826.41;;;4.54;63.65
46782;BME280;32541;46.298;11.506;2022-12-07T13:23:38;88818.56;;;4.75;63.55
46782;BME280;32541;46.298;11.506;2022-12-07T13:34:03;88819.34;;;4.85;65.19
46782;BME280;32541;46.298;11.506;2022-12-07T13:36:33;88818.25;;;4.71;66.32
46782;BME280;32541;46.298;11.506;2022-12-07T13:41:42;88828.53;;;5.24;63.86
46782;BME280;32541;46.298;11.506;2022-12-07T13:44:15;88819.00;;;5.86;60.49
46782;BME280;32541;46.298;11.506;2022-12-07T13:49:26;88820.66;;;6.08;59.38
46782;BME280;32541;46.298;11.506;2022-12-07T13:51:53;88812.19;;;5.77;60.46
46782;BME280;32541;46.298;11.506;2022-12-07T13:54:19;88814.00;;;5.92;59.40
46782;BME280;32541;46.298;11.506;2022-12-07T13:56:54;88822.50;;;5.96;58.58
46782;BME280;32541;46.298;11.506;2022-12-07T13:59:23;88818.44;;;5.60;61.64
46782;BME280;32541;46.298;11.506;2022-12-07T14:01:50;88812.41;;;5.89;59.87
46782;BME280;32541;46.298;11.506;2022-12-07T14:04:37;88814.44;;;5.98;60.32
46782;BME280;32541;46.298;11.506;2022-12-07T14:07:25;88811.84;;;6.00;61.12
46782;BME280;32541;46.298;11.506;2022-12-07T14:09:59;88817.25;;;6.17;61.04
46782;BME280;32541;46.298;11.506;2022-12-07T14:12:26;88815.09;;;6.15;60.56
46782;BME280;32541;46.298;11.506;2022-12-07T14:14:52;88824.25;;;6.10;61.29
46782;BME280;32541;46.298;11.506;2022-12-07T14:17:26;88815.34;;;6.10;61.68
46782;BME280;32541;46.298;11.506;2022-12-07T14:19:56;88823.66;;;6.02;61.83
46782;BME280;32541;46.298;11.506;2022-12-07T14:25:18;88828.69;;;5.79;61.60
46782;BME280;32541;46.298;11.506;2022-12-07T14:30:18;88841.47;;;5.50;63.13
46782;BME280;32541;46.298;11.506;2022-12-07T14:32:44;88839.19;;;5.29;63.49
46782;BME280;32541;46.298;11.506;2022-12-07T14:35:16;88833.75;;;5.12;64.55
46782;BME280;32541;46.298;11.506;2022-12-07T14:37:44;88833.69;;;4.85;65.29
46782;BME280;32541;46.298;11.506;2022-12-07T14:40:15;88833.84;;;4.70;65.93
46782;BME280;32541;46.298;11.506;2022-12-07T14:42:42;88843.38;;;4.62;66.53
46782;BME280;32541;46.298;11.506;2022-12-07T14:45:20;88846.25;;;4.46;67.50
46782;BME280;32541;46.298;11.506;2022-12-07T14:47:46;88851.44;;;4.35;67.54
46782;BME280;32541;46.298;11.506;2022-12-07T14:50:14;88847.19;;;4.00;68.92
46782;BME280;32541;46.298;11.506;2022-12-07T14:52:40;88856.78;;;3.76;69.22
46782;BME280;32541;46.298;11.506;2022-12-07T14:55:14;88848.34;;;3.32;70.64
46782;BME280;32541;46.298;11.506;2022-12-07T14:57:42;88846.03;;;3.28;70.98
46782;BME280;32541;46.298;11.506;2022-12-07T15:00:09;88844.91;;;3.31;71.87
46782;BME280;32541;46.298;11.506;2022-12-07T15:02:38;88851.81;;;3.25;72.53
46782;BME280;32541;46.298;11.506;2022-12-07T15:05:04;88857.13;;;3.15;72.45
46782;BME280;32541;46.298;11.506;2022-12-07T15:07:29;88851.69;;;3.15;72.13
46782;BME280;32541;46.298;11.506;2022-12-07T15:09:55;88851.75;;;3.00;72.26
46782;BME280;32541;46.298;11.506;2022-12-07T15:12:20;88855.75;;;2.92;71.97
46782;BME280;32541;46.298;11.506;2022-12-07T15:14:46;88856.75;;;2.79;73.29